sensor_id;sensor_type;location;lat;lon;timestamp;temperature;humidity
38902;DHT22;24661;53.566;9.910;2023-05-10T00:00:41;14.20;99.90
38902;DHT22;24661;53.566;9.910;2023-05-10T00:03:07;14.20;99.90
38902;DHT22;24661;53.566;9.910;2023-05-10T00:05:33;14.20;99.90
38902;DHT22;24661;53.566;9.910;2023-05-10T00:07:58;14.10;99.90
38902;DHT22;24661;53.566;9.910;2023-05-10T00:10:24;14.20;99.90
38902;DHT22;24661;53.566;9.910;2023-05-10T00:12:49;14.80;99.90
38902;DHT22;24661;53.566;9.910;2023-05-10T00:15:15;14.00;99.90
38902;DHT22;24661;53.566;9.910;2023-05-10T00:17:40;14.00;99.90
38902;DHT22;24661;53.566;9.910;2023-05-10T00:20:06;14.00;99.90
38902;DHT22;24661;53.566;9.910;2023-05-10T00:22:32;14.00;99.90
38902;DHT22;24661;53.566;9.910;2023-05-10T00:24:58;14.00;99.90
38902;DHT22;24661;53.566;9.910;2023-05-10T00:27:24;14.00;99.90
38902;DHT22;24661;53.566;9.910;2023-05-10T00:29:50;13.90;99.90
38902;DHT22;24661;53.566;9.910;2023-05-10T00:32:16;13.90;99.90
38902;DHT22;24661;53.566;9.910;2023-05-10T00:34:41;13.90;99.90
38902;DHT22;24661;53.566;9.910;2023-05-10T00:37:07;13.90;99.90
38902;DHT22;24661;53.566;9.910;2023-05-10T00:39:32;13.80;99.90
38902;DHT22;24661;53.566;9.910;2023-05-10T00:41:58;13.80;99.90
38902;DHT22;24661;53.566;9.910;2023-05-10T00:44:24;13.80;99.90
38902;DHT22;24661;53.566;9.910;2023-05-10T00:46:50;13.80;99.90
38902;DHT22;24661;53.566;9.910;2023-05-10T00:49:16;13.70;99.90
38902;DHT22;24661;53.566;9.910;2023-05-10T00:51:42;13.70;99.90
38902;DHT22;24661;53.566;9.910;2023-05-10T00:54:12;13.60;99.90
38902;DHT22;24661;53.566;9.910;2023-05-10T00:56:39;13.60;99.90
38902;DHT22;24661;53.566;9.910;2023-05-10T00:59:05;13.60;99.90
38902;DHT22;24661;53.566;9.910;2023-05-10T01:01:31;13.60;99.90
38902;DHT22;24661;53.566;9.910;2023-05-10T01:03:58;13.50;99.90
38902;DHT22;24661;53.566;9.910;2023-05-10T01:06:23;13.50;99.90
38902;DHT22;24661;53.566;9.910;2023-05-10T01:08:49;13.40;99.90
38902;DHT22;24661;53.566;9.910;2023-05-10T01:11:15;13.40;99.90
38902;DHT22;24661;53.566;9.910;2023-05-10T01:13:42;13.40;99.90
38902;DHT22;24661;53.566;9.910;2023-05-10T01:16:08;13.40;99.90
38902;DHT22;24661;53.566;9.910;2023-05-10T01:18:41;13.30;99.90
38902;DHT22;24661;53.566;9.910;2023-05-10T01:21:22;13.30;99.90
38902;DHT22;24661;53.566;9.910;2023-05-10T01:26:48;13.20;99.90
38902;DHT22;24661;53.566;9.910;2023-05-10T01:32:11;13.20;99.90
38902;DHT22;24661;53.566;9.910;2023-05-10T01:37:36;13.10;99.90
38902;DHT22;24661;53.566;9.910;2023-05-10T01:40:28;13.10;99.90
38902;DHT22;24661;53.566;9.910;2023-05-10T01:43:01;13.10;99.90
38902;DHT22;24661;53.566;9.910;2023-05-10T01:45:36;13.10;99.90
38902;DHT22;24661;53.566;9.910;2023-05-10T01:48:10;13.10;99.90
38902;DHT22;24661;53.566;9.910;2023-05-10T01:50:38;13.00;99.90
38902;DHT22;24661;53.566;9.910;2023-05-10T01:53:10;13.00;99.90
38902;DHT22;24661;53.566;9.910;2023-05-10T01:55:44;13.00;99.90
38902;DHT22;24661;53.566;9.910;2023-05-10T01:58:18;12.90;99.90
38902;DHT22;24661;53.566;9.910;2023-05-10T02:00:46;12.90;99.90
38902;DHT22;24661;53.566;9.910;2023-05-10T02:03:13;12.90;99.90
38902;DHT22;24661;53.566;9.910;2023-05-10T02:05:41;12.90;99.90
38902;DHT22;24661;53.566;9.910;2023-05-10T02:08:07;12.90;99.90
38902;DHT22;24661;53.566;9.910;2023-05-10T02:10:37;12.90;99.90
38902;DHT22;24661;53.566;9.910;2023-05-10T02:13:03;12.90;99.90
38902;DHT22;24661;53.566;9.910;2023-05-10T02:15:32;12.80;99.90
38902;DHT22;24661;53.566;9.910;2023-05-10T02:17:58;12.80;99.90
38902;DHT22;24661;53.566;9.910;2023-05-10T02:20:26;12.80;99.90
38902;DHT22;24661;53.566;9.910;2023-05-10T02:22:54;12.70;99.90
38902;DHT22;24661;53.566;9.910;2023-05-10T02:25:22;12.70;99.90
38902;DHT22;24661;53.566;9.910;2023-05-10T02:27:48;12.70;99.90
38902;DHT22;24661;53.566;9.910;2023-05-10T02:30:16;12.70;99.90
38902;DHT22;24661;53.566;9.910;2023-05-10T02:32:43;12.70;99.90
38902;DHT22;24661;53.566;9.910;2023-05-10T02:35:09;12.60;99.90
38902;DHT22;24661;53.566;9.910;2023-05-10T02:37:37;13.30;99.90
38902;DHT22;24661;53.566;9.910;2023-05-10T02:40:05;12.60;99.90
38902;DHT22;24661;53.566;9.910;2023-05-10T02:42:35;12.60;99.90
38902;DHT22;24661;53.566;9.910;2023-05-10T02:45:03;12.50;99.90
38902;DHT22;24661;53.566;9.910;2023-05-10T02:47:32;12.50;99.90
38902;DHT22;24661;53.566;9.910;2023-05-10T02:49:57;12.50;99.90
38902;DHT22;24661;53.566;9.910;2023-05-10T02:52:25;12.50;99.90
38902;DHT22;24661;53.566;9.910;2023-05-10T02:54:55;12.50;99.90
38902;DHT22;24661;53.566;9.910;2023-05-10T02:57:27;12.50;99.90
38902;DHT22;24661;53.566;9.910;2023-05-10T02:59:54;12.50;99.90
38902;DHT22;24661;53.566;9.910;2023-05-10T03:02:20;12.50;99.90
38902;DHT22;24661;53.566;9.910;2023-05-10T03:04:46;12.40;99.90
38902;DHT22;24661;53.566;9.910;2023-05-10T03:07:12;12.50;99.90
38902;DHT22;24661;53.566;9.910;2023-05-10T03:09:38;12.50;99.90
38902;DHT22;24661;53.566;9.910;2023-05-10T03:12:07;12.50;99.90
38902;DHT22;24661;53.566;9.910;2023-05-10T03:14:52;12.40;99.90
38902;DHT22;24661;53.566;9.910;2023-05-10T03:17:46;12.40;99.90
38902;DHT22;24661;53.566;9.910;2023-05-10T03:20:24;12.50;99.90
38902;DHT22;24661;53.566;9.910;2023-05-10T03:22:59;12.50;99.90
38902;DHT22;24661;53.566;9.910;2023-05-10T03:25:26;12.50;99.90
38902;DHT22;24661;53.566;9.910;2023-05-10T03:27:54;12.50;99.90
38902;DHT22;24661;53.566;9.910;2023-05-10T03:30:19;12.50;99.90
38902;DHT22;24661;53.566;9.910;2023-05-10T03:32:45;12.50;99.90
38902;DHT22;24661;53.566;9.910;2023-05-10T03:35:12;12.40;99.90
38902;DHT22;24661;53.566;9.910;2023-05-10T03:37:38;12.50;99.90
38902;DHT22;24661;53.566;9.910;2023-05-10T03:40:05;12.50;99.90
38902;DHT22;24661;53.566;9.910;2023-05-10T03:42:30;12.50;99.90
38902;DHT22;24661;53.566;9.910;2023-05-10T03:44:56;12.40;99.90
38902;DHT22;24661;53.566;9.910;2023-05-10T03:47:23;12.30;99.90
38902;DHT22;24661;53.566;9.910;2023-05-10T03:49:48;12.40;99.90
38902;DHT22;24661;53.566;9.910;2023-05-10T03:52:14;12.40;99.90
38902;DHT22;24661;53.566;9.910;2023-05-10T03:54:40;12.40;99.90
38902;DHT22;24661;53.566;9.910;2023-05-10T03:57:06;12.50;99.90
38902;DHT22;24661;53.566;9.910;2023-05-10T03:59:32;12.30;99.90
38902;DHT22;24661;53.566;9.910;2023-05-10T04:01:57;12.40;99.90
38902;DHT22;24661;53.566;9.910;2023-05-10T04:04:23;12.40;99.90
38902;DHT22;24661;53.566;9.910;2023-05-10T04:06:49;12.40;99.90
38902;DHT22;24661;53.566;9.910;2023-05-10T04:09:14;12.40;99.90
38902;DHT22;24661;53.566;9.910;2023-05-10T04:11:40;12.40;99.90
38902;DHT22;24661;53.566;9.910;2023-05-10T04:14:06;12.50;99.90
38902;DHT22;24661;53.566;9.910;2023-05-10T04:16:31;12.50;99.90
38902;DHT22;24661;53.566;9.910;2023-05-10T04:18:58;12.50;99.90
38902;DHT22;24661;53.566;9.910;2023-05-10T04:21:25;12.50;99.90
38902;DHT22;24661;53.566;9.910;2023-05-10T04:23:50;12.50;99.90
38902;DHT22;24661;53.566;9.910;2023-05-10T04:26:16;12.50;99.90
38902;DHT22;24661;53.566;9.910;2023-05-10T04:28:42;12.50;99.90
38902;DHT22;24661;53.566;9.910;2023-05-10T04:31:09;12.50;99.90
38902;DHT22;24661;53.566;9.910;2023-05-10T04:33:35;12.50;99.90
38902;DHT22;24661;53.566;9.910;2023-05-10T04:36:01;12.50;99.90
38902;DHT22;24661;53.566;9.910;2023-05-10T04:38:27;12.50;99.90
38902;DHT22;24661;53.566;9.910;2023-05-10T04:40:53;12.40;99.90
38902;DHT22;24661;53.566;9.910;2023-05-10T04:43:18;12.40;99.90
38902;DHT22;24661;53.566;9.910;2023-05-10T04:45:44;12.50;99.90
38902;DHT22;24661;53.566;9.910;2023-05-10T04:48:09;12.50;99.90
38902;DHT22;24661;53.566;9.910;2023-05-10T04:50:35;12.50;99.90
38902;DHT22;24661;53.566;9.910;2023-05-10T04:53:01;12.50;99.90
38902;DHT22;24661;53.566;9.910;2023-05-10T04:55:26;11.40;99.90
38902;DHT22;24661;53.566;9.910;2023-05-10T04:57:52;12.50;99.90
38902;DHT22;24661;53.566;9.910;2023-05-10T05:00:18;12.50;99.90
38902;DHT22;24661;53.566;9.910;2023-05-10T05:02:45;12.60;99.90
38902;DHT22;24661;53.566;9.910;2023-05-10T05:05:11;12.60;99.90
38902;DHT22;24661;53.566;9.910;2023-05-10T05:07:37;12.60;99.90
38902;DHT22;24661;53.566;9.910;2023-05-10T05:10:07;12.70;99.90
38902;DHT22;24661;53.566;9.910;2023-05-10T05:12:33;12.70;99.90
38902;DHT22;24661;53.566;9.910;2023-05-10T05:14:59;12.80;99.90
38902;DHT22;24661;53.566;9.910;2023-05-10T05:17:24;12.80;99.90
38902;DHT22;24661;53.566;9.910;2023-05-10T05:19:50;12.90;99.90
38902;DHT22;24661;53.566;9.910;2023-05-10T05:22:15;12.90;99.90
38902;DHT22;24661;53.566;9.910;2023-05-10T05:24:41;12.80;99.90
38902;DHT22;24661;53.566;9.910;2023-05-10T05:27:06;12.90;99.90
38902;DHT22;24661;53.566;9.910;2023-05-10T05:29:32;12.90;99.90
38902;DHT22;24661;53.566;9.910;2023-05-10T05:31:58;14.30;99.90
38902;DHT22;24661;53.566;9.910;2023-05-10T05:34:23;13.10;99.90
38902;DHT22;24661;53.566;9.910;2023-05-10T05:36:50;13.10;99.90
38902;DHT22;24661;53.566;9.910;2023-05-10T05:39:16;13.10;99.90
38902;DHT22;24661;53.566;9.910;2023-05-10T05:41:42;13.10;99.90
38902;DHT22;24661;53.566;9.910;2023-05-10T05:44:07;13.10;99.90
38902;DHT22;24661;53.566;9.910;2023-05-10T05:46:33;13.10;99.90
38902;DHT22;24661;53.566;9.910;2023-05-10T05:48:59;13.20;99.90
38902;DHT22;24661;53.566;9.910;2023-05-10T05:51:24;13.30;99.90
38902;DHT22;24661;53.566;9.910;2023-05-10T05:53:50;13.40;99.90
38902;DHT22;24661;53.566;9.910;2023-05-10T05:56:16;13.40;99.90
38902;DHT22;24661;53.566;9.910;2023-05-10T05:58:42;13.40;99.90
38902;DHT22;24661;53.566;9.910;2023-05-10T06:01:09;13.50;99.90
38902;DHT22;24661;53.566;9.910;2023-05-10T06:03:34;13.60;99.90
38902;DHT22;24661;53.566;9.910;2023-05-10T06:06:00;13.60;99.90
38902;DHT22;24661;53.566;9.910;2023-05-10T06:08:25;13.70;99.90
38902;DHT22;24661;53.566;9.910;2023-05-10T06:10:51;13.80;99.90
38902;DHT22;24661;53.566;9.910;2023-05-10T06:13:16;13.90;99.90
38902;DHT22;24661;53.566;9.910;2023-05-10T06:15:42;14.00;99.90
38902;DHT22;24661;53.566;9.910;2023-05-10T06:18:08;14.10;99.90
38902;DHT22;24661;53.566;9.910;2023-05-10T06:20:33;14.10;99.90
38902;DHT22;24661;53.566;9.910;2023-05-10T06:22:59;14.10;99.90
38902;DHT22;24661;53.566;9.910;2023-05-10T06:25:24;14.20;99.90
38902;DHT22;24661;53.566;9.910;2023-05-10T06:27:50;14.20;99.90
38902;DHT22;24661;53.566;9.910;2023-05-10T06:30:17;14.10;99.90
38902;DHT22;24661;53.566;9.910;2023-05-10T06:32:42;14.00;99.90
38902;DHT22;24661;53.566;9.910;2023-05-10T06:35:09;14.20;99.90
38902;DHT22;24661;53.566;9.910;2023-05-10T06:37:35;14.10;99.90
38902;DHT22;24661;53.566;9.910;2023-05-10T06:40:00;14.10;99.90
38902;DHT22;24661;53.566;9.910;2023-05-10T06:42:27;15.40;99.90
38902;DHT22;24661;53.566;9.910;2023-05-10T06:44:52;14.20;99.90
38902;DHT22;24661;53.566;9.910;2023-05-10T06:47:19;14.30;99.90
38902;DHT22;24661;53.566;9.910;2023-05-10T06:49:44;14.50;99.90
38902;DHT22;24661;53.566;9.910;2023-05-10T06:52:10;14.50;99.90
38902;DHT22;24661;53.566;9.910;2023-05-10T06:54:36;14.70;99.90
38902;DHT22;24661;53.566;9.910;2023-05-10T06:57:01;14.90;99.90
38902;DHT22;24661;53.566;9.910;2023-05-10T06:59:28;14.90;99.90
38902;DHT22;24661;53.566;9.910;2023-05-10T07:01:54;15.10;99.90
38902;DHT22;24661;53.566;9.910;2023-05-10T07:04:19;15.10;99.90
38902;DHT22;24661;53.566;9.910;2023-05-10T07:06:45;15.00;99.90
38902;DHT22;24661;53.566;9.910;2023-05-10T07:09:11;15.20;99.90
38902;DHT22;24661;53.566;9.910;2023-05-10T07:11:38;15.30;99.90
38902;DHT22;24661;53.566;9.910;2023-05-10T07:14:04;15.60;99.90
38902;DHT22;24661;53.566;9.910;2023-05-10T07:16:29;15.80;99.90
38902;DHT22;24661;53.566;9.910;2023-05-10T07:18:55;16.10;99.90
38902;DHT22;24661;53.566;9.910;2023-05-10T07:21:21;16.20;99.90
38902;DHT22;24661;53.566;9.910;2023-05-10T07:23:49;16.00;99.90
38902;DHT22;24661;53.566;9.910;2023-05-10T07:26:15;15.90;99.90
38902;DHT22;24661;53.566;9.910;2023-05-10T07:28:41;15.90;99.90
38902;DHT22;24661;53.566;9.910;2023-05-10T07:31:06;15.90;99.90
38902;DHT22;24661;53.566;9.910;2023-05-10T07:33:32;16.00;99.90
38902;DHT22;24661;53.566;9.910;2023-05-10T07:35:57;15.90;99.90
38902;DHT22;24661;53.566;9.910;2023-05-10T07:38:23;16.10;99.90
38902;DHT22;24661;53.566;9.910;2023-05-10T07:40:48;16.30;99.90
38902;DHT22;24661;53.566;9.910;2023-05-10T07:43:14;16.40;99.90
38902;DHT22;24661;53.566;9.910;2023-05-10T07:45:39;16.40;99.90
38902;DHT22;24661;53.566;9.910;2023-05-10T07:48:05;16.60;99.90
38902;DHT22;24661;53.566;9.910;2023-05-10T07:50:30;16.60;99.90
38902;DHT22;24661;53.566;9.910;2023-05-10T07:52:56;16.60;99.90
38902;DHT22;24661;53.566;9.910;2023-05-10T07:55:22;16.60;99.90
38902;DHT22;24661;53.566;9.910;2023-05-10T07:57:47;16.50;99.90
38902;DHT22;24661;53.566;9.910;2023-05-10T08:00:17;16.70;99.90
38902;DHT22;24661;53.566;9.910;2023-05-10T08:02:43;16.60;99.90
38902;DHT22;24661;53.566;9.910;2023-05-10T08:05:08;16.50;99.90
38902;DHT22;24661;53.566;9.910;2023-05-10T08:07:35;16.30;99.90
38902;DHT22;24661;53.566;9.910;2023-05-10T08:10:01;16.40;99.90
38902;DHT22;24661;53.566;9.910;2023-05-10T08:12:26;16.70;99.90
38902;DHT22;24661;53.566;9.910;2023-05-10T08:14:52;16.90;99.90
38902;DHT22;24661;53.566;9.910;2023-05-10T08:17:17;16.90;99.90
38902;DHT22;24661;53.566;9.910;2023-05-10T08:19:43;17.00;99.90
38902;DHT22;24661;53.566;9.910;2023-05-10T08:22:08;17.10;99.90
38902;DHT22;24661;53.566;9.910;2023-05-10T08:24:34;17.00;99.90
38902;DHT22;24661;53.566;9.910;2023-05-10T08:27:04;17.00;99.90
38902;DHT22;24661;53.566;9.910;2023-05-10T08:29:30;17.00;99.90
38902;DHT22;24661;53.566;9.910;2023-05-10T08:31:55;17.10;99.90
38902;DHT22;24661;53.566;9.910;2023-05-10T08:34:21;17.10;99.90
38902;DHT22;24661;53.566;9.910;2023-05-10T08:36:47;17.00;99.90
38902;DHT22;24661;53.566;9.910;2023-05-10T08:39:12;17.00;99.90
38902;DHT22;24661;53.566;9.910;2023-05-10T08:41:39;17.20;99.90
38902;DHT22;24661;53.566;9.910;2023-05-10T08:44:07;17.10;99.90
38902;DHT22;24661;53.566;9.910;2023-05-10T08:46:34;17.30;99.90
38902;DHT22;24661;53.566;9.910;2023-05-10T08:49:04;17.50;99.90
38902;DHT22;24661;53.566;9.910;2023-05-10T08:51:35;17.90;99.90
38902;DHT22;24661;53.566;9.910;2023-05-10T08:54:02;17.40;99.90
38902;DHT22;24661;53.566;9.910;2023-05-10T08:56:29;17.40;99.90
38902;DHT22;24661;53.566;9.910;2023-05-10T08:58:55;17.70;99.90
38902;DHT22;24661;53.566;9.910;2023-05-10T09:01:21;17.80;99.90
38902;DHT22;24661;53.566;9.910;2023-05-10T09:03:47;17.80;99.90
38902;DHT22;24661;53.566;9.910;2023-05-10T09:06:13;17.70;99.90
38902;DHT22;24661;53.566;9.910;2023-05-10T09:08:41;17.60;99.90
38902;DHT22;24661;53.566;9.910;2023-05-10T09:11:07;17.60;99.90
38902;DHT22;24661;53.566;9.910;2023-05-10T09:13:34;17.60;99.90
38902;DHT22;24661;53.566;9.910;2023-05-10T09:16:01;17.60;99.90
38902;DHT22;24661;53.566;9.910;2023-05-10T09:18:26;17.50;99.90
38902;DHT22;24661;53.566;9.910;2023-05-10T09:20:52;17.40;99.90
38902;DHT22;24661;53.566;9.910;2023-05-10T09:23:18;17.50;99.90
38902;DHT22;24661;53.566;9.910;2023-05-10T09:25:43;17.20;99.90
38902;DHT22;24661;53.566;9.910;2023-05-10T09:28:09;17.10;99.90
38902;DHT22;24661;53.566;9.910;2023-05-10T09:30:35;17.20;99.90
38902;DHT22;24661;53.566;9.910;2023-05-10T09:33:01;17.00;99.90
38902;DHT22;24661;53.566;9.910;2023-05-10T09:35:29;16.90;99.90
38902;DHT22;24661;53.566;9.910;2023-05-10T09:37:59;17.00;99.90
38902;DHT22;24661;53.566;9.910;2023-05-10T09:40:26;17.00;99.90
38902;DHT22;24661;53.566;9.910;2023-05-10T09:42:58;16.80;99.90
38902;DHT22;24661;53.566;9.910;2023-05-10T09:45:26;16.70;99.90
38902;DHT22;24661;53.566;9.910;2023-05-10T09:47:52;16.50;99.90
38902;DHT22;24661;53.566;9.910;2023-05-10T09:50:19;16.50;99.90
38902;DHT22;24661;53.566;9.910;2023-05-10T09:52:51;16.50;99.90
38902;DHT22;24661;53.566;9.910;2023-05-10T09:55:22;16.10;99.90
38902;DHT22;24661;53.566;9.910;2023-05-10T09:57:48;16.00;99.90
38902;DHT22;24661;53.566;9.910;2023-05-10T10:00:20;15.80;99.90
38902;DHT22;24661;53.566;9.910;2023-05-10T10:02:47;15.50;99.90
38902;DHT22;24661;53.566;9.910;2023-05-10T10:05:14;15.20;99.90
38902;DHT22;24661;53.566;9.910;2023-05-10T10:07:40;15.20;99.90
38902;DHT22;24661;53.566;9.910;2023-05-10T10:10:06;15.20;99.90
38902;DHT22;24661;53.566;9.910;2023-05-10T10:12:37;15.10;99.90
38902;DHT22;24661;53.566;9.910;2023-05-10T10:15:03;15.00;99.90
38902;DHT22;24661;53.566;9.910;2023-05-10T10:17:30;15.00;99.90
38902;DHT22;24661;53.566;9.910;2023-05-10T10:19:57;14.90;99.90
38902;DHT22;24661;53.566;9.910;2023-05-10T10:22:24;14.80;99.90
38902;DHT22;24661;53.566;9.910;2023-05-10T10:24:50;14.80;99.90
38902;DHT22;24661;53.566;9.910;2023-05-10T10:27:24;14.70;99.90
38902;DHT22;24661;53.566;9.910;2023-05-10T10:35:40;14.50;99.90
38902;DHT22;24661;53.566;9.910;2023-05-10T10:38:08;14.50;99.90
38902;DHT22;24661;53.566;9.910;2023-05-10T10:40:34;14.50;99.90
38902;DHT22;24661;53.566;9.910;2023-05-10T10:43:28;14.50;99.90
38902;DHT22;24661;53.566;9.910;2023-05-10T10:46:13;14.60;99.90
38902;DHT22;24661;53.566;9.910;2023-05-10T10:48:40;14.80;99.90
38902;DHT22;24661;53.566;9.910;2023-05-10T10:51:06;14.80;99.90
38902;DHT22;24661;53.566;9.910;2023-05-10T10:53:32;14.80;99.90
38902;DHT22;24661;53.566;9.910;2023-05-10T10:56:12;14.80;99.90
38902;DHT22;24661;53.566;9.910;2023-05-10T10:58:40;14.80;99.90
38902;DHT22;24661;53.566;9.910;2023-05-10T11:01:14;14.90;99.90
38902;DHT22;24661;53.566;9.910;2023-05-10T11:04:04;14.90;99.90
38902;DHT22;24661;53.566;9.910;2023-05-10T11:06:33;14.90;99.90
38902;DHT22;24661;53.566;9.910;2023-05-10T11:09:09;14.90;99.90
38902;DHT22;24661;53.566;9.910;2023-05-10T11:11:36;15.00;99.90
38902;DHT22;24661;53.566;9.910;2023-05-10T11:14:06;15.00;99.90
38902;DHT22;24661;53.566;9.910;2023-05-10T11:16:42;15.10;99.90
38902;DHT22;24661;53.566;9.910;2023-05-10T11:19:13;15.00;99.90
38902;DHT22;24661;53.566;9.910;2023-05-10T11:22:11;15.00;99.90
38902;DHT22;24661;53.566;9.910;2023-05-10T11:24:38;15.00;99.90
38902;DHT22;24661;53.566;9.910;2023-05-10T11:27:05;15.00;99.90
38902;DHT22;24661;53.566;9.910;2023-05-10T11:29:31;15.00;99.90
38902;DHT22;24661;53.566;9.910;2023-05-10T11:31:58;15.00;99.90
38902;DHT22;24661;53.566;9.910;2023-05-10T11:34:31;15.00;99.90
38902;DHT22;24661;53.566;9.910;2023-05-10T11:36:59;15.10;99.90
38902;DHT22;24661;53.566;9.910;2023-05-10T11:39:29;15.10;99.90
38902;DHT22;24661;53.566;9.910;2023-05-10T11:41:56;15.10;99.90
38902;DHT22;24661;53.566;9.910;2023-05-10T11:44:22;15.10;99.90
38902;DHT22;24661;53.566;9.910;2023-05-10T11:46:48;15.10;99.90
38902;DHT22;24661;53.566;9.910;2023-05-10T11:49:14;15.00;99.90
38902;DHT22;24661;53.566;9.910;2023-05-10T11:51:40;15.00;99.90
38902;DHT22;24661;53.566;9.910;2023-05-10T11:54:08;15.00;99.90
38902;DHT22;24661;53.566;9.910;2023-05-10T11:56:34;15.00;99.90
38902;DHT22;24661;53.566;9.910;2023-05-10T11:59:00;15.10;99.90
38902;DHT22;24661;53.566;9.910;2023-05-10T12:01:27;15.10;99.90
38902;DHT22;24661;53.566;9.910;2023-05-10T12:03:55;15.10;99.90
38902;DHT22;24661;53.566;9.910;2023-05-10T12:06:27;15.20;99.90
38902;DHT22;24661;53.566;9.910;2023-05-10T12:08:53;15.10;99.90
38902;DHT22;24661;53.566;9.910;2023-05-10T12:11:19;15.20;99.90
38902;DHT22;24661;53.566;9.910;2023-05-10T12:13:47;15.10;99.90
38902;DHT22;24661;53.566;9.910;2023-05-10T12:16:24;15.10;99.90
38902;DHT22;24661;53.566;9.910;2023-05-10T12:18:52;15.30;99.90
38902;DHT22;24661;53.566;9.910;2023-05-10T12:21:19;15.40;99.90
38902;DHT22;24661;53.566;9.910;2023-05-10T12:23:46;15.40;99.90
38902;DHT22;24661;53.566;9.910;2023-05-10T12:26:12;15.50;99.90
38902;DHT22;24661;53.566;9.910;2023-05-10T12:28:38;15.60;99.90
38902;DHT22;24661;53.566;9.910;2023-05-10T12:31:07;15.60;99.90
38902;DHT22;24661;53.566;9.910;2023-05-10T12:33:37;15.60;99.90
38902;DHT22;24661;53.566;9.910;2023-05-10T12:36:08;15.60;99.90
38902;DHT22;24661;53.566;9.910;2023-05-10T12:38:36;15.60;99.90
38902;DHT22;24661;53.566;9.910;2023-05-10T12:41:08;15.60;99.90
38902;DHT22;24661;53.566;9.910;2023-05-10T12:43:35;15.70;99.90
38902;DHT22;24661;53.566;9.910;2023-05-10T12:46:17;15.80;99.90
38902;DHT22;24661;53.566;9.910;2023-05-10T12:48:43;15.60;99.90
38902;DHT22;24661;53.566;9.910;2023-05-10T12:51:10;15.70;99.90
38902;DHT22;24661;53.566;9.910;2023-05-10T12:53:38;15.70;99.90
38902;DHT22;24661;53.566;9.910;2023-05-10T12:56:05;15.60;99.90
38902;DHT22;24661;53.566;9.910;2023-05-10T12:58:30;15.80;99.90
38902;DHT22;24661;53.566;9.910;2023-05-10T13:00:57;15.80;99.90
38902;DHT22;24661;53.566;9.910;2023-05-10T13:03:22;15.10;99.90
38902;DHT22;24661;53.566;9.910;2023-05-10T13:05:48;15.90;99.90
38902;DHT22;24661;53.566;9.910;2023-05-10T13:08:14;16.10;99.90
38902;DHT22;24661;53.566;9.910;2023-05-10T13:10:40;16.20;99.90
38902;DHT22;24661;53.566;9.910;2023-05-10T13:13:06;16.30;99.90
38902;DHT22;24661;53.566;9.910;2023-05-10T13:15:33;16.40;99.90
38902;DHT22;24661;53.566;9.910;2023-05-10T13:17:58;16.50;99.90
38902;DHT22;24661;53.566;9.910;2023-05-10T13:20:25;16.70;99.90
38902;DHT22;24661;53.566;9.910;2023-05-10T13:22:50;16.70;99.90
38902;DHT22;24661;53.566;9.910;2023-05-10T13:25:16;16.50;99.90
38902;DHT22;24661;53.566;9.910;2023-05-10T13:27:42;16.80;99.90
38902;DHT22;24661;53.566;9.910;2023-05-10T13:30:09;16.90;99.90
38902;DHT22;24661;53.566;9.910;2023-05-10T13:32:36;17.00;99.90
38902;DHT22;24661;53.566;9.910;2023-05-10T13:35:02;17.10;99.90
38902;DHT22;24661;53.566;9.910;2023-05-10T13:37:31;17.10;99.90
38902;DHT22;24661;53.566;9.910;2023-05-10T13:39:57;16.80;99.90
38902;DHT22;24661;53.566;9.910;2023-05-10T13:42:23;16.70;99.90
38902;DHT22;24661;53.566;9.910;2023-05-10T13:44:50;16.70;99.90
38902;DHT22;24661;53.566;9.910;2023-05-10T13:47:15;16.80;99.90
38902;DHT22;24661;53.566;9.910;2023-05-10T13:49:41;16.80;99.90
38902;DHT22;24661;53.566;9.910;2023-05-10T13:52:07;16.90;99.90
38902;DHT22;24661;53.566;9.910;2023-05-10T13:54:36;16.70;99.90
38902;DHT22;24661;53.566;9.910;2023-05-10T13:57:03;16.80;99.90
38902;DHT22;24661;53.566;9.910;2023-05-10T13:59:30;17.00;99.90
38902;DHT22;24661;53.566;9.910;2023-05-10T14:01:57;17.00;99.90
38902;DHT22;24661;53.566;9.910;2023-05-10T14:04:26;17.30;99.90
38902;DHT22;24661;53.566;9.910;2023-05-10T14:06:51;17.30;99.90
38902;DHT22;24661;53.566;9.910;2023-05-10T14:09:18;17.40;99.90
38902;DHT22;24661;53.566;9.910;2023-05-10T14:11:45;17.50;99.90
38902;DHT22;24661;53.566;9.910;2023-05-10T14:14:11;17.60;99.90
38902;DHT22;24661;53.566;9.910;2023-05-10T14:16:38;17.50;99.90
38902;DHT22;24661;53.566;9.910;2023-05-10T14:19:03;17.60;99.90
38902;DHT22;24661;53.566;9.910;2023-05-10T14:21:29;17.50;99.90
38902;DHT22;24661;53.566;9.910;2023-05-10T14:23:56;17.50;99.90
38902;DHT22;24661;53.566;9.910;2023-05-10T14:26:21;17.50;99.90
38902;DHT22;24661;53.566;9.910;2023-05-10T14:28:47;17.60;99.90
38902;DHT22;24661;53.566;9.910;2023-05-10T14:31:13;17.70;99.90
38902;DHT22;24661;53.566;9.910;2023-05-10T14:33:40;17.60;99.90
38902;DHT22;24661;53.566;9.910;2023-05-10T14:36:06;17.30;99.90
38902;DHT22;24661;53.566;9.910;2023-05-10T14:38:32;17.40;99.90
38902;DHT22;24661;53.566;9.910;2023-05-10T14:40:58;17.40;99.90
38902;DHT22;24661;53.566;9.910;2023-05-10T14:43:24;17.40;99.90
38902;DHT22;24661;53.566;9.910;2023-05-10T14:45:52;17.30;99.90
38902;DHT22;24661;53.566;9.910;2023-05-10T14:48:18;17.20;99.90
38902;DHT22;24661;53.566;9.910;2023-05-10T14:50:45;17.50;99.90
38902;DHT22;24661;53.566;9.910;2023-05-10T14:53:11;17.50;99.90
38902;DHT22;24661;53.566;9.910;2023-05-10T14:55:37;17.50;99.90
38902;DHT22;24661;53.566;9.910;2023-05-10T14:58:03;17.40;99.90
38902;DHT22;24661;53.566;9.910;2023-05-10T15:00:29;17.50;99.90
38902;DHT22;24661;53.566;9.910;2023-05-10T15:02:55;17.40;99.90
38902;DHT22;24661;53.566;9.910;2023-05-10T15:05:21;17.30;99.90
38902;DHT22;24661;53.566;9.910;2023-05-10T15:07:47;17.20;99.90
38902;DHT22;24661;53.566;9.910;2023-05-10T15:10:13;17.10;99.90
38902;DHT22;24661;53.566;9.910;2023-05-10T15:12:39;17.20;99.90
38902;DHT22;24661;53.566;9.910;2023-05-10T15:15:06;17.10;99.90
38902;DHT22;24661;53.566;9.910;2023-05-10T15:17:32;17.20;99.90
38902;DHT22;24661;53.566;9.910;2023-05-10T15:19:58;17.30;99.90
38902;DHT22;24661;53.566;9.910;2023-05-10T15:22:23;17.40;99.90
38902;DHT22;24661;53.566;9.910;2023-05-10T15:24:49;17.40;99.90
38902;DHT22;24661;53.566;9.910;2023-05-10T15:27:15;17.40;99.90
38902;DHT22;24661;53.566;9.910;2023-05-10T15:29:41;17.50;99.90
38902;DHT22;24661;53.566;9.910;2023-05-10T15:32:07;17.40;99.90
38902;DHT22;24661;53.566;9.910;2023-05-10T15:34:33;17.50;99.90
38902;DHT22;24661;53.566;9.910;2023-05-10T15:36:58;17.30;99.90
38902;DHT22;24661;53.566;9.910;2023-05-10T15:39:24;17.30;99.90
38902;DHT22;24661;53.566;9.910;2023-05-10T15:41:50;17.20;99.90
38902;DHT22;24661;53.566;9.910;2023-05-10T15:44:17;17.10;99.90